createdAt,value
2022-08-15T00:02:34.827Z,93.60
2022-08-15T00:07:53.400Z,93.90
2022-08-15T00:12:56.722Z,94.50
2022-08-15T00:28:06.594Z,93.10
2022-08-15T00:33:21.291Z,93.10
2022-08-15T00:38:39.038Z,93.50
2022-08-15T00:43:48.534Z,93.70
2022-08-15T00:48:51.407Z,94.20
2022-08-15T00:53:57.924Z,93.90
2022-08-15T00:59:05.807Z,94.40
2022-08-15T01:04:17.788Z,94.20
2022-08-15T01:09:21.124Z,94.50
2022-08-15T01:19:57.726Z,94.10
2022-08-15T01:25:15.591Z,94.90
2022-08-15T01:31:01.418Z,95.00
2022-08-15T01:35:56.596Z,94.90
2022-08-15T01:57:17.853Z,95.20
2022-08-15T02:02:50.412Z,95.10
2022-08-15T02:07:49.358Z,94.90
2022-08-15T02:13:15.711Z,96.10
2022-08-15T02:18:19.755Z,96.10
2022-08-15T02:23:23.089Z,96.00
2022-08-15T02:28:35.160Z,95.70
2022-08-15T02:33:39.252Z,95.90
2022-08-15T02:38:47.275Z,95.90
2022-08-15T02:43:52.130Z,96.30
2022-08-15T02:53:59.471Z,96.20
2022-08-15T02:59:22.112Z,96.50
2022-08-15T03:04:27.593Z,97.50
2022-08-15T03:09:32.324Z,97.10
2022-08-15T03:14:37.589Z,96.80
2022-08-15T03:19:39.895Z,97.00
2022-08-15T03:24:43.974Z,98.20
2022-08-15T03:29:52.253Z,98.00
2022-08-15T03:34:55.351Z,96.80
2022-08-15T03:39:58.288Z,96.80
2022-08-15T03:45:10.929Z,98.20
2022-08-15T03:50:27.888Z,97.70
2022-08-15T03:55:40.323Z,98.10
2022-08-15T04:00:52.193Z,97.80
2022-08-15T04:05:58.617Z,97.50
2022-08-15T04:11:03.327Z,98.40
2022-08-15T04:17:00.187Z,98.80
2022-08-15T04:21:26.848Z,98.80
2022-08-15T04:26:28.843Z,99.00
2022-08-15T04:31:32.701Z,98.50
2022-08-15T04:36:38.874Z,98.90
2022-08-15T04:56:59.678Z,99.90
2022-08-15T05:02:50.334Z,99.90
2022-08-15T05:07:27.232Z,99.90
2022-08-15T05:12:34.097Z,99.90
2022-08-15T05:17:55.050Z,99.90
2022-08-15T05:23:03.148Z,99.90
2022-08-15T05:28:31.396Z,99.90
2022-08-15T05:33:55.564Z,99.90
2022-08-15T05:39:11.622Z,99.90
2022-08-15T05:44:38.950Z,99.90
2022-08-15T05:50:02.073Z,99.90
2022-08-15T05:55:35.776Z,99.90
2022-08-15T06:00:41.466Z,99.90
2022-08-15T06:05:49.361Z,99.90
2022-08-15T06:11:14.384Z,99.90
2022-08-15T06:16:40.979Z,99.90
2022-08-15T06:21:47.093Z,99.90
2022-08-15T06:27:13.327Z,99.90
2022-08-15T06:32:57.617Z,99.90
2022-08-15T06:38:04.136Z,99.90
2022-08-15T06:43:21.256Z,99.90
2022-08-15T06:48:58.729Z,99.90
2022-08-15T06:53:58.225Z,99.90
2022-08-15T06:59:08.245Z,99.90
2022-08-15T07:04:37.094Z,99.90
2022-08-15T07:09:53.885Z,99.90
2022-08-15T07:15:26.241Z,99.90
2022-08-15T07:20:38.608Z,99.90
2022-08-15T07:25:48.195Z,99.90
2022-08-15T07:31:00.876Z,99.90
2022-08-15T07:36:30.622Z,99.90
2022-08-15T07:41:54.470Z,99.90
2022-08-15T07:46:59.077Z,99.90
2022-08-15T07:52:07.093Z,99.90
2022-08-15T08:03:20.602Z,99.90
2022-08-15T08:08:44.725Z,99.90
2022-08-15T08:14:37.120Z,99.90
2022-08-15T08:19:43.583Z,99.90
2022-08-15T08:24:54.460Z,99.90
2022-08-15T08:30:43.319Z,99.90
2022-08-15T08:36:35.826Z,99.90
2022-08-15T08:41:48.372Z,99.90
2022-08-15T08:47:17.908Z,99.90
2022-08-15T08:52:42.976Z,99.20
2022-08-15T08:57:55.209Z,99.10
2022-08-15T09:03:19.681Z,97.80
2022-08-15T09:08:48.018Z,98.00
2022-08-15T09:13:55.693Z,97.00
2022-08-15T09:19:13.801Z,96.80
2022-08-15T09:24:22.765Z,95.80
2022-08-15T09:30:45.879Z,94.70
2022-08-15T09:35:52.123Z,95.00
2022-08-15T09:41:16.673Z,95.30
2022-08-15T09:46:53.520Z,95.50
2022-08-15T09:57:36.818Z,94.80
2022-08-15T10:02:46.618Z,95.30
2022-08-15T10:07:59.574Z,95.30
2022-08-15T10:13:23.425Z,94.80
2022-08-15T10:18:27.516Z,94.60
2022-08-15T10:23:38.140Z,94.50
2022-08-15T10:29:12.156Z,93.60
2022-08-15T10:34:38.928Z,94.50
2022-08-15T10:40:02.560Z,93.10
2022-08-15T10:45:13.777Z,93.10
2022-08-15T10:50:45.828Z,92.30
2022-08-15T10:55:58.174Z,93.30
2022-08-15T11:01:10.561Z,94.00
2022-08-15T11:06:26.708Z,93.00
2022-08-15T11:11:33.624Z,92.60
2022-08-15T11:16:39.535Z,92.70
2022-08-15T11:21:48.015Z,91.40
2022-08-15T11:27:09.990Z,91.80
2022-08-15T11:32:25.997Z,90.70
2022-08-15T11:37:40.037Z,89.70
2022-08-15T11:42:57.847Z,90.30
2022-08-15T11:48:36.008Z,91.40
2022-08-15T11:54:04.377Z,91.00
2022-08-15T11:59:21.075Z,90.70
2022-08-15T12:10:05.737Z,90.00
2022-08-15T12:13:12.971Z,90.40
2022-08-15T12:15:33.242Z,90.90
2022-08-15T12:21:04.477Z,88.30
2022-08-15T12:26:23.802Z,83.20
2022-08-15T12:31:42.718Z,86.80
2022-08-15T12:37:03.299Z,86.90
2022-08-15T12:42:48.707Z,84.00
2022-08-15T12:47:33.901Z,84.00
2022-08-15T12:52:37.482Z,81.60
2022-08-15T12:57:53.276Z,83.40
2022-08-15T13:03:19.367Z,84.30
2022-08-15T13:08:26.481Z,82.10
2022-08-15T13:18:33.922Z,78.90
2022-08-15T13:29:01.487Z,80.60
2022-08-15T13:39:28.968Z,81.30
2022-08-15T14:05:00.575Z,84.70
2022-08-15T14:10:59.343Z,84.70
2022-08-15T14:15:27.666Z,85.40
2022-08-15T14:20:46.347Z,84.70
2022-08-15T14:41:49.201Z,84.60
2022-08-15T14:46:53.811Z,84.70
2022-08-15T14:52:23.706Z,85.90
2022-08-15T14:57:20.521Z,86.40
2022-08-15T15:02:29.008Z,86.00
2022-08-15T15:07:57.263Z,83.30
2022-08-15T15:12:59.704Z,83.60
2022-08-15T15:18:09.390Z,82.20
2022-08-15T15:23:25.546Z,86.70
2022-08-15T15:28:35.001Z,90.30
2022-08-15T15:33:43.523Z,90.10
2022-08-15T15:38:55.447Z,91.10
2022-08-15T15:44:00.837Z,90.40
2022-08-15T15:49:03.708Z,88.60
2022-08-15T15:54:35.981Z,89.40
2022-08-15T15:59:58.263Z,90.20
2022-08-15T16:04:49.941Z,92.70
2022-08-15T16:09:54.930Z,92.80
2022-08-15T16:15:07.935Z,95.80
2022-08-15T16:20:41.356Z,96.90
2022-08-15T16:25:51.762Z,99.90
2022-08-15T16:31:15.292Z,99.90
2022-08-15T16:36:37.562Z,99.90
2022-08-15T16:41:48.566Z,99.90
2022-08-15T16:47:07.099Z,99.90
2022-08-15T16:52:48.085Z,99.90
2022-08-15T16:58:36.184Z,99.90
2022-08-15T17:03:56.140Z,99.90
2022-08-15T17:09:03.648Z,99.90
2022-08-15T17:14:48.062Z,99.90
2022-08-15T17:19:57.505Z,99.90
2022-08-15T17:25:11.569Z,99.90
2022-08-15T17:30:53.950Z,99.90
2022-08-15T17:35:39.863Z,99.90
2022-08-15T17:40:53.124Z,99.90
2022-08-15T17:45:58.764Z,99.90
2022-08-15T17:51:11.598Z,99.90
2022-08-15T17:56:55.002Z,99.90
2022-08-15T18:01:56.879Z,99.90
2022-08-15T18:06:58.657Z,99.90
2022-08-15T18:12:02.204Z,99.90
2022-08-15T18:17:32.255Z,99.90
2022-08-15T18:22:45.153Z,99.90
2022-08-15T18:27:54.679Z,99.90
2022-08-15T18:33:58.011Z,99.90
2022-08-15T18:39:18.719Z,99.90
2022-08-15T18:44:30.227Z,99.90
2022-08-15T18:49:33.903Z,99.90
2022-08-15T18:54:58.568Z,99.90
2022-08-15T19:00:16.687Z,99.90
2022-08-15T19:05:22.421Z,99.90
2022-08-15T19:10:31.554Z,99.90
2022-08-15T19:15:57.834Z,99.90
2022-08-15T19:21:03.926Z,99.90
2022-08-15T19:26:25.446Z,99.90
2022-08-15T19:31:52.502Z,99.90
2022-08-15T19:37:23.940Z,99.90
2022-08-15T19:42:49.447Z,99.90
2022-08-15T19:48:33.722Z,99.90
2022-08-15T19:55:21.851Z,99.90
2022-08-15T19:59:31.816Z,99.90
2022-08-15T20:04:55.522Z,99.90
2022-08-15T20:10:31.726Z,99.90
2022-08-15T20:16:00.588Z,99.90
2022-08-15T20:21:12.086Z,99.90
2022-08-15T20:26:35.311Z,99.90
2022-08-15T20:32:02.259Z,99.90
2022-08-15T20:37:36.656Z,99.90
2022-08-15T20:42:46.769Z,99.90
2022-08-15T20:48:44.204Z,99.90
2022-08-15T20:53:25.456Z,99.90
2022-08-15T20:58:37.747Z,99.90
2022-08-15T21:04:02.205Z,99.90
2022-08-15T21:09:17.280Z,99.90
2022-08-15T21:15:09.632Z,99.90
2022-08-15T21:20:33.304Z,99.90
2022-08-15T21:25:43.369Z,99.90
2022-08-15T21:31:02.355Z,99.90
2022-08-15T21:36:35.084Z,99.90
2022-08-15T21:41:56.513Z,99.90
2022-08-15T21:47:36.788Z,99.90
2022-08-15T21:52:49.298Z,99.90
2022-08-15T21:58:28.701Z,99.90
2022-08-15T22:03:39.882Z,99.90
2022-08-15T22:08:51.586Z,99.90
2022-08-15T22:13:58.932Z,99.90
2022-08-15T22:19:03.167Z,99.90
2022-08-15T22:29:33.667Z,99.90
2022-08-15T22:34:51.621Z,99.90
2022-08-15T22:39:53.354Z,99.90
2022-08-15T22:45:05.526Z,99.90
2022-08-15T22:50:14.042Z,99.90
2022-08-15T22:55:45.145Z,99.90
2022-08-15T23:00:52.108Z,99.90
2022-08-15T23:06:29.204Z,99.90
2022-08-15T23:11:49.202Z,99.90
2022-08-15T23:17:09.169Z,99.90
2022-08-15T23:22:33.145Z,99.90
2022-08-15T23:27:40.688Z,99.90
2022-08-15T23:32:46.917Z,99.90
2022-08-15T23:37:55.960Z,99.90
2022-08-15T23:43:00.865Z,99.90
2022-08-15T23:53:22.452Z,99.90
2022-08-15T23:58:33.971Z,99.90
